sensor_id;sensor_type;location;lat;lon;timestamp;pressure;altitude;pressure_sealevel;temperature;humidity
30682;BME280;17439;48.092;11.842;2022-12-28T00:01:22;96285.84;;;2.66;68.78
30682;BME280;17439;48.092;11.842;2022-12-28T00:03:51;96280.72;;;2.65;69.00
30682;BME280;17439;48.092;11.842;2022-12-28T00:06:20;96279.09;;;2.64;69.07
30682;BME280;17439;48.092;11.842;2022-12-28T00:08:47;96279.09;;;2.64;69.26
30682;BME280;17439;48.092;11.842;2022-12-28T00:11:16;96276.66;;;2.62;68.97
30682;BME280;17439;48.092;11.842;2022-12-28T00:13:57;96281.19;;;2.62;69.16
30682;BME280;17439;48.092;11.842;2022-12-28T00:16:31;96271.53;;;2.61;69.17
30682;BME280;17439;48.092;11.842;2022-12-28T00:19:02;96273.66;;;2.59;68.65
30682;BME280;17439;48.092;11.842;2022-12-28T00:21:29;96272.00;;;2.58;68.79
30682;BME280;17439;48.092;11.842;2022-12-28T00:23:57;96268.78;;;2.56;68.58
30682;BME280;17439;48.092;11.842;2022-12-28T00:26:26;96275.44;;;2.53;68.53
30682;BME280;17439;48.092;11.842;2022-12-28T00:28:53;96270.31;;;2.51;68.70
30682;BME280;17439;48.092;11.842;2022-12-28T00:31:29;96266.25;;;2.49;68.73
30682;BME280;17439;48.092;11.842;2022-12-28T00:33:56;96266.47;;;2.47;68.80
30682;BME280;17439;48.092;11.842;2022-12-28T00:36:23;96269.41;;;2.46;68.69
30682;BME280;17439;48.092;11.842;2022-12-28T00:38:49;96266.16;;;2.44;68.89
30682;BME280;17439;48.092;11.842;2022-12-28T00:41:16;96275.22;;;2.43;68.91
30682;BME280;17439;48.092;11.842;2022-12-28T00:43:43;96278.16;;;2.41;68.83
30682;BME280;17439;48.092;11.842;2022-12-28T00:46:09;96273.81;;;2.40;68.81
30682;BME280;17439;48.092;11.842;2022-12-28T00:48:36;96271.38;;;2.39;68.87
30682;BME280;17439;48.092;11.842;2022-12-28T00:51:05;96278.63;;;2.38;69.10
30682;BME280;17439;48.092;11.842;2022-12-28T00:53:32;96269.78;;;2.38;69.06
30682;BME280;17439;48.092;11.842;2022-12-28T00:56:19;96265.72;;;2.35;68.60
30682;BME280;17439;48.092;11.842;2022-12-28T00:58:46;96274.56;;;2.35;69.17
30682;BME280;17439;48.092;11.842;2022-12-28T01:01:19;96256.88;;;2.34;68.80
30682;BME280;17439;48.092;11.842;2022-12-28T01:03:46;96257.69;;;2.35;69.06
30682;BME280;17439;48.092;11.842;2022-12-28T01:06:16;96257.13;;;2.33;69.06
30682;BME280;17439;48.092;11.842;2022-12-28T01:08:43;96257.13;;;2.33;69.06
30682;BME280;17439;48.092;11.842;2022-12-28T01:11:13;96257.13;;;2.33;69.11
30682;BME280;17439;48.092;11.842;2022-12-28T01:13:41;96260.84;;;2.32;69.17
30682;BME280;17439;48.092;11.842;2022-12-28T01:16:16;96256.56;;;2.31;69.15
30682;BME280;17439;48.092;11.842;2022-12-28T01:18:44;96254.69;;;2.31;69.30
30682;BME280;17439;48.092;11.842;2022-12-28T01:21:14;96253.88;;;2.31;69.16
30682;BME280;17439;48.092;11.842;2022-12-28T01:23:41;96250.13;;;2.32;69.37
30682;BME280;17439;48.092;11.842;2022-12-28T01:26:08;96254.69;;;2.31;69.25
30682;BME280;17439;48.092;11.842;2022-12-28T01:28:35;96252.00;;;2.31;69.17
30682;BME280;17439;48.092;11.842;2022-12-28T01:31:07;96247.69;;;2.30;68.96
30682;BME280;17439;48.092;11.842;2022-12-28T01:33:34;96248.75;;;2.29;69.21
30682;BME280;17439;48.092;11.842;2022-12-28T01:36:48;96246.31;;;2.28;69.03
30682;BME280;17439;48.092;11.842;2022-12-28T01:38:57;96248.75;;;2.29;69.29
30682;BME280;17439;48.092;11.842;2022-12-28T01:41:26;96258.63;;;2.29;69.00
30682;BME280;17439;48.092;11.842;2022-12-28T01:49:12;96251.78;;;2.21;68.84
30682;BME280;17439;48.092;11.842;2022-12-28T01:52:02;96254.00;;;2.24;68.80
30682;BME280;17439;48.092;11.842;2022-12-28T01:54:38;96244.13;;;2.25;69.13
30682;BME280;17439;48.092;11.842;2022-12-28T01:57:05;96240.38;;;2.26;69.15
30682;BME280;17439;48.092;11.842;2022-12-28T01:59:37;96244.13;;;2.25;69.30
30682;BME280;17439;48.092;11.842;2022-12-28T02:02:06;96232.59;;;2.24;69.39
30682;BME280;17439;48.092;11.842;2022-12-28T02:04:34;96228.06;;;2.25;69.44
30682;BME280;17439;48.092;11.842;2022-12-28T02:07:01;96236.91;;;2.25;69.50
30682;BME280;17439;48.092;11.842;2022-12-28T02:09:46;96229.09;;;2.24;69.21
30682;BME280;17439;48.092;11.842;2022-12-28T02:12:34;96228.06;;;2.25;69.96
30682;BME280;17439;48.092;11.842;2022-12-28T02:15:05;96213.63;;;2.26;69.96
30682;BME280;17439;48.092;11.842;2022-12-28T02:17:31;96202.69;;;2.27;69.84
30682;BME280;17439;48.092;11.842;2022-12-28T02:19:58;96205.34;;;2.27;70.03
30682;BME280;17439;48.092;11.842;2022-12-28T02:25:45;96183.94;;;2.27;69.57
30682;BME280;17439;48.092;11.842;2022-12-28T02:30:46;96185.59;;;2.28;69.65
30682;BME280;17439;48.092;11.842;2022-12-28T02:33:21;96183.72;;;2.29;69.75
30682;BME280;17439;48.092;11.842;2022-12-28T02:36:00;96183.72;;;2.29;69.44
30682;BME280;17439;48.092;11.842;2022-12-28T02:38:41;96182.91;;;2.28;69.54
30682;BME280;17439;48.092;11.842;2022-12-28T02:41:13;96179.19;;;2.29;69.45
30682;BME280;17439;48.092;11.842;2022-12-28T02:43:40;96167.66;;;2.29;69.55
30682;BME280;17439;48.092;11.842;2022-12-28T02:46:26;96163.63;;;2.26;69.24
30682;BME280;17439;48.092;11.842;2022-12-28T02:48:56;96163.38;;;2.28;69.73
30682;BME280;17439;48.092;11.842;2022-12-28T02:56:45;96170.56;;;2.27;69.65
30682;BME280;17439;48.092;11.842;2022-12-28T02:59:41;96167.09;;;2.27;69.42
30682;BME280;17439;48.092;11.842;2022-12-28T03:05:17;96161.25;;;2.30;69.71
30682;BME280;17439;48.092;11.842;2022-12-28T03:07:53;96161.81;;;2.32;69.82
30682;BME280;17439;48.092;11.842;2022-12-28T03:10:39;96153.78;;;2.32;69.87
30682;BME280;17439;48.092;11.842;2022-12-28T03:13:21;96149.03;;;2.34;70.40
30682;BME280;17439;48.092;11.842;2022-12-28T03:15:49;96149.59;;;2.36;70.87
30682;BME280;17439;48.092;11.842;2022-12-28T03:18:18;96136.78;;;2.38;70.68
30682;BME280;17439;48.092;11.842;2022-12-28T03:20:46;96138.97;;;2.41;71.15
30682;BME280;17439;48.092;11.842;2022-12-28T03:23:15;96136.84;;;2.43;70.85
30682;BME280;17439;48.092;11.842;2022-12-28T03:25:44;96135.56;;;2.46;70.97
30682;BME280;17439;48.092;11.842;2022-12-28T03:28:15;96136.97;;;2.48;70.89
30682;BME280;17439;48.092;11.842;2022-12-28T03:30:46;96124.94;;;2.51;70.78
30682;BME280;17439;48.092;11.842;2022-12-28T03:33:13;96116.66;;;2.52;71.04
30682;BME280;17439;48.092;11.842;2022-12-28T03:36:15;96104.13;;;2.53;69.79
30682;BME280;17439;48.092;11.842;2022-12-28T03:38:51;96101.19;;;2.54;70.47
30682;BME280;17439;48.092;11.842;2022-12-28T03:41:34;96089.41;;;2.56;69.87
30682;BME280;17439;48.092;11.842;2022-12-28T03:44:23;96091.78;;;2.52;69.57
30682;BME280;17439;48.092;11.842;2022-12-28T03:47:05;96092.66;;;2.58;70.06
30682;BME280;17439;48.092;11.842;2022-12-28T03:49:34;96097.50;;;2.61;70.93
30682;BME280;17439;48.092;11.842;2022-12-28T03:52:01;96092.75;;;2.63;71.08
30682;BME280;17439;48.092;11.842;2022-12-28T03:54:29;96085.53;;;2.63;70.98
30682;BME280;17439;48.092;11.842;2022-12-28T03:56:56;96078.03;;;2.65;71.10
30682;BME280;17439;48.092;11.842;2022-12-28T03:59:27;96073.28;;;2.67;71.13
30682;BME280;17439;48.092;11.842;2022-12-28T04:01:55;96068.72;;;2.68;71.20
30682;BME280;17439;48.092;11.842;2022-12-28T04:04:22;96069.28;;;2.70;71.22
30682;BME280;17439;48.092;11.842;2022-12-28T04:06:49;96058.56;;;2.70;71.45
30682;BME280;17439;48.092;11.842;2022-12-28T04:09:16;96064.47;;;2.72;71.47
30682;BME280;17439;48.092;11.842;2022-12-28T04:11:43;96061.56;;;2.73;71.74
30682;BME280;17439;48.092;11.842;2022-12-28T04:14:17;96066.44;;;2.77;71.89
30682;BME280;17439;48.092;11.842;2022-12-28T04:16:49;96071.28;;;2.80;72.01
30682;BME280;17439;48.092;11.842;2022-12-28T04:19:18;96070.81;;;2.83;71.80
30682;BME280;17439;48.092;11.842;2022-12-28T04:21:46;96066.84;;;2.85;71.85
30682;BME280;17439;48.092;11.842;2022-12-28T04:24:13;96070.06;;;2.87;71.74
30682;BME280;17439;48.092;11.842;2022-12-28T04:26:39;96070.38;;;2.91;71.88
30682;BME280;17439;48.092;11.842;2022-12-28T04:29:07;96069.09;;;2.94;71.85
30682;BME280;17439;48.092;11.842;2022-12-28T04:31:37;96068.03;;;2.95;71.85
30682;BME280;17439;48.092;11.842;2022-12-28T04:34:10;96069.38;;;2.97;71.85
30682;BME280;17439;48.092;11.842;2022-12-28T04:36:42;96056.59;;;2.99;71.96
30682;BME280;17439;48.092;11.842;2022-12-28T04:39:12;96059.00;;;3.01;71.85
30682;BME280;17439;48.092;11.842;2022-12-28T04:41:39;96054.22;;;3.03;71.68
30682;BME280;17439;48.092;11.842;2022-12-28T04:44:05;96039.78;;;3.04;71.67
30682;BME280;17439;48.092;11.842;2022-12-28T04:46:32;96045.69;;;3.06;71.76
30682;BME280;17439;48.092;11.842;2022-12-28T04:48:59;96044.34;;;3.08;71.83
30682;BME280;17439;48.092;11.842;2022-12-28T04:51:27;96046.78;;;3.10;71.82
30682;BME280;17439;48.092;11.842;2022-12-28T04:53:54;96040.94;;;3.13;71.68
30682;BME280;17439;48.092;11.842;2022-12-28T04:56:23;96043.63;;;3.13;71.69
30682;BME280;17439;48.092;11.842;2022-12-28T04:58:58;96047.13;;;3.14;70.92
30682;BME280;17439;48.092;11.842;2022-12-28T05:01:25;96045.00;;;3.16;71.37
30682;BME280;17439;48.092;11.842;2022-12-28T05:03:53;96050.09;;;3.17;71.00
30682;BME280;17439;48.092;11.842;2022-12-28T05:06:25;96048.47;;;3.16;70.94
30682;BME280;17439;48.092;11.842;2022-12-28T05:08:54;96046.03;;;3.15;70.61
30682;BME280;17439;48.092;11.842;2022-12-28T05:11:21;96039.81;;;3.09;70.31
30682;BME280;17439;48.092;11.842;2022-12-28T05:13:48;96046.22;;;3.08;70.26
30682;BME280;17439;48.092;11.842;2022-12-28T05:16:19;96037.69;;;3.11;70.65
30682;BME280;17439;48.092;11.842;2022-12-28T05:18:46;96050.84;;;3.13;71.10
30682;BME280;17439;48.092;11.842;2022-12-28T05:21:24;96037.69;;;3.11;70.09
30682;BME280;17439;48.092;11.842;2022-12-28T05:23:52;96038.50;;;3.12;71.31
30682;BME280;17439;48.092;11.842;2022-12-28T05:26:22;96032.34;;;3.11;71.48
30682;BME280;17439;48.092;11.842;2022-12-28T05:28:48;96038.25;;;3.13;71.95
30682;BME280;17439;48.092;11.842;2022-12-28T05:31:17;96041.50;;;3.15;71.98
30682;BME280;17439;48.092;11.842;2022-12-28T05:33:44;96038.59;;;3.17;72.14
30682;BME280;17439;48.092;11.842;2022-12-28T05:36:13;96037.25;;;3.19;71.98
30682;BME280;17439;48.092;11.842;2022-12-28T05:38:40;96032.19;;;3.23;72.29
30682;BME280;17439;48.092;11.842;2022-12-28T05:41:19;96028.22;;;3.25;71.58
30682;BME280;17439;48.092;11.842;2022-12-28T05:43:46;96029.34;;;3.30;72.42
30682;BME280;17439;48.092;11.842;2022-12-28T05:46:16;96022.91;;;3.31;72.25
30682;BME280;17439;48.092;11.842;2022-12-28T05:48:44;96020.56;;;3.34;72.72
30682;BME280;17439;48.092;11.842;2022-12-28T05:51:14;96020.06;;;3.37;72.69
30682;BME280;17439;48.092;11.842;2022-12-28T05:53:41;96008.56;;;3.42;72.87
30682;BME280;17439;48.092;11.842;2022-12-28T05:56:13;96009.16;;;3.44;72.22
30682;BME280;17439;48.092;11.842;2022-12-28T05:58:42;96011.06;;;3.49;73.04
30682;BME280;17439;48.092;11.842;2022-12-28T06:01:10;96013.44;;;3.45;71.28
30682;BME280;17439;48.092;11.842;2022-12-28T06:03:37;96019.97;;;3.54;73.19
30682;BME280;17439;48.092;11.842;2022-12-28T06:06:12;96019.47;;;3.57;72.28
30682;BME280;17439;48.092;11.842;2022-12-28T06:08:41;96024.06;;;3.62;73.18
30682;BME280;17439;48.092;11.842;2022-12-28T06:11:10;96021.69;;;3.66;73.08
30682;BME280;17439;48.092;11.842;2022-12-28T06:13:37;96026.31;;;3.70;73.08
30682;BME280;17439;48.092;11.842;2022-12-28T06:16:06;96019.63;;;3.73;73.00
30682;BME280;17439;48.092;11.842;2022-12-28T06:18:33;96024.25;;;3.77;72.96
30682;BME280;17439;48.092;11.842;2022-12-28T06:21:11;96017.53;;;3.80;72.12
30682;BME280;17439;48.092;11.842;2022-12-28T06:23:39;96013.56;;;3.83;73.00
30682;BME280;17439;48.092;11.842;2022-12-28T06:26:07;96016.53;;;3.86;72.86
30682;BME280;17439;48.092;11.842;2022-12-28T06:28:36;96015.22;;;3.89;72.33
30682;BME280;17439;48.092;11.842;2022-12-28T06:31:05;96014.72;;;3.92;72.86
30682;BME280;17439;48.092;11.842;2022-12-28T06:33:32;96016.91;;;3.95;73.02
30682;BME280;17439;48.092;11.842;2022-12-28T06:35:59;96017.44;;;3.97;73.00
30682;BME280;17439;48.092;11.842;2022-12-28T06:38:26;96017.19;;;3.98;73.06
30682;BME280;17439;48.092;11.842;2022-12-28T06:40:53;96015.03;;;4.00;72.88
30682;BME280;17439;48.092;11.842;2022-12-28T06:43:40;96019.91;;;4.04;72.91
30682;BME280;17439;48.092;11.842;2022-12-28T06:46:07;96025.03;;;4.05;73.04
30682;BME280;17439;48.092;11.842;2022-12-28T06:48:34;96018.34;;;4.08;72.79
30682;BME280;17439;48.092;11.842;2022-12-28T06:51:06;96018.09;;;4.09;71.92
30682;BME280;17439;48.092;11.842;2022-12-28T06:53:34;96028.31;;;4.12;72.55
30682;BME280;17439;48.092;11.842;2022-12-28T06:56:04;96029.66;;;4.15;72.49
30682;BME280;17439;48.092;11.842;2022-12-28T06:58:31;96024.63;;;4.18;72.82
30682;BME280;17439;48.092;11.842;2022-12-28T07:01:06;96033.47;;;4.19;71.62
30682;BME280;17439;48.092;11.842;2022-12-28T07:03:33;96027.34;;;4.24;73.17
30682;BME280;17439;48.092;11.842;2022-12-28T07:06:01;96026.81;;;4.27;73.31
30682;BME280;17439;48.092;11.842;2022-12-28T07:08:28;96019.06;;;4.30;73.38
30682;BME280;17439;48.092;11.842;2022-12-28T07:11:00;96020.97;;;4.35;72.36
30682;BME280;17439;48.092;11.842;2022-12-28T07:13:27;96020.22;;;4.40;73.44
30682;BME280;17439;48.092;11.842;2022-12-28T07:15:53;96014.31;;;4.43;73.44
30682;BME280;17439;48.092;11.842;2022-12-28T07:18:20;96011.94;;;4.46;73.28
30682;BME280;17439;48.092;11.842;2022-12-28T07:20:47;96017.59;;;4.50;73.30
30682;BME280;17439;48.092;11.842;2022-12-28T07:23:13;96027.81;;;4.53;73.45
30682;BME280;17439;48.092;11.842;2022-12-28T07:25:40;96030.81;;;4.57;73.49
30682;BME280;17439;48.092;11.842;2022-12-28T07:28:06;96025.72;;;4.60;73.45
30682;BME280;17439;48.092;11.842;2022-12-28T07:30:34;96021.44;;;4.64;73.43
30682;BME280;17439;48.092;11.842;2022-12-28T07:33:00;96022.53;;;4.68;73.40
30682;BME280;17439;48.092;11.842;2022-12-28T07:35:27;96022.03;;;4.71;73.54
30682;BME280;17439;48.092;11.842;2022-12-28T07:37:54;96025.78;;;4.76;73.41
30682;BME280;17439;48.092;11.842;2022-12-28T07:40:21;96026.13;;;4.79;73.54
30682;BME280;17439;48.092;11.842;2022-12-28T07:42:47;96023.69;;;4.83;73.55
30682;BME280;17439;48.092;11.842;2022-12-28T07:45:14;96014.06;;;4.87;73.38
30682;BME280;17439;48.092;11.842;2022-12-28T07:47:40;96021.34;;;4.92;73.55
30682;BME280;17439;48.092;11.842;2022-12-28T07:50:07;96026.19;;;4.95;73.38
30682;BME280;17439;48.092;11.842;2022-12-28T07:52:35;96029.16;;;4.98;73.52
30682;BME280;17439;48.092;11.842;2022-12-28T07:55:02;96032.94;;;5.02;73.50
30682;BME280;17439;48.092;11.842;2022-12-28T07:57:28;96027.88;;;5.06;73.70
30682;BME280;17439;48.092;11.842;2022-12-28T07:59:55;96036.75;;;5.12;73.66
30682;BME280;17439;48.092;11.842;2022-12-28T08:02:24;96032.47;;;5.16;73.62
30682;BME280;17439;48.092;11.842;2022-12-28T08:04:51;96028.44;;;5.18;73.73
30682;BME280;17439;48.092;11.842;2022-12-28T08:07:18;96032.78;;;5.24;73.63
30682;BME280;17439;48.092;11.842;2022-12-28T08:09:44;96030.38;;;5.28;73.87
30682;BME280;17439;48.092;11.842;2022-12-28T08:12:11;96031.47;;;5.32;73.88
30682;BME280;17439;48.092;11.842;2022-12-28T08:14:37;96028.78;;;5.37;73.80
30682;BME280;17439;48.092;11.842;2022-12-28T08:17:04;96023.47;;;5.42;73.96
30682;BME280;17439;48.092;11.842;2022-12-28T08:19:31;96018.09;;;5.48;73.87
30682;BME280;17439;48.092;11.842;2022-12-28T08:21:58;96009.22;;;5.52;73.79
30682;BME280;17439;48.092;11.842;2022-12-28T08:24:24;96010.03;;;5.58;73.86
30682;BME280;17439;48.092;11.842;2022-12-28T08:26:51;96003.06;;;5.62;73.74
30682;BME280;17439;48.092;11.842;2022-12-28T08:29:20;96009.50;;;5.66;73.48
30682;BME280;17439;48.092;11.842;2022-12-28T08:31:47;96002.28;;;5.72;73.75
30682;BME280;17439;48.092;11.842;2022-12-28T08:34:17;96002.28;;;5.77;73.57
30682;BME280;17439;48.092;11.842;2022-12-28T08:36:45;95995.56;;;5.85;74.24
30682;BME280;17439;48.092;11.842;2022-12-28T08:39:11;96003.63;;;5.90;74.39
30682;BME280;17439;48.092;11.842;2022-12-28T08:41:38;96004.72;;;5.94;73.80
30682;BME280;17439;48.092;11.842;2022-12-28T08:44:04;96013.09;;;6.03;74.03
30682;BME280;17439;48.092;11.842;2022-12-28T08:46:33;96012.03;;;6.09;74.22
30682;BME280;17439;48.092;11.842;2022-12-28T08:49:01;96014.19;;;6.17;74.65
30682;BME280;17439;48.092;11.842;2022-12-28T08:51:36;96011.53;;;6.22;70.58
30682;BME280;17439;48.092;11.842;2022-12-28T08:54:04;96007.47;;;6.30;73.79
30682;BME280;17439;48.092;11.842;2022-12-28T08:56:36;96009.06;;;6.36;73.53
30682;BME280;17439;48.092;11.842;2022-12-28T08:59:03;96007.47;;;6.45;74.22
30682;BME280;17439;48.092;11.842;2022-12-28T09:01:32;96009.06;;;6.51;74.14
30682;BME280;17439;48.092;11.842;2022-12-28T09:04:14;96001.81;;;6.57;73.21
30682;BME280;17439;48.092;11.842;2022-12-28T09:06:40;95992.06;;;6.66;74.19
30682;BME280;17439;48.092;11.842;2022-12-28T09:09:11;95993.94;;;6.71;73.40
30682;BME280;17439;48.092;11.842;2022-12-28T09:11:39;95992.06;;;6.77;73.59
30682;BME280;17439;48.092;11.842;2022-12-28T09:14:08;95991.25;;;6.81;73.14
30682;BME280;17439;48.092;11.842;2022-12-28T09:16:36;95983.13;;;6.86;73.89
30682;BME280;17439;48.092;11.842;2022-12-28T09:19:06;95979.63;;;6.91;72.95
30682;BME280;17439;48.092;11.842;2022-12-28T09:21:35;95984.47;;;6.94;72.65
30682;BME280;17439;48.092;11.842;2022-12-28T09:24:02;95981.22;;;6.97;72.93
30682;BME280;17439;48.092;11.842;2022-12-28T09:26:31;95978.78;;;7.01;72.93
30682;BME280;17439;48.092;11.842;2022-12-28T09:29:04;95971.78;;;7.05;71.25
30682;BME280;17439;48.092;11.842;2022-12-28T09:31:32;95975.25;;;7.11;73.45
30682;BME280;17439;48.092;11.842;2022-12-28T09:33:59;95967.41;;;7.14;73.54
30682;BME280;17439;48.092;11.842;2022-12-28T09:36:45;95972.78;;;7.19;73.58
30682;BME280;17439;48.092;11.842;2022-12-28T09:39:14;95965.47;;;7.25;72.79
30682;BME280;17439;48.092;11.842;2022-12-28T09:46:45;95970.28;;;7.38;71.63
30682;BME280;17439;48.092;11.842;2022-12-28T09:49:16;95960.53;;;7.42;72.67
30682;BME280;17439;48.092;11.842;2022-12-28T09:51:50;95954.03;;;7.49;70.60
30682;BME280;17439;48.092;11.842;2022-12-28T09:54:18;95942.41;;;7.53;73.09
30682;BME280;17439;48.092;11.842;2022-12-28T09:56:44;95944.25;;;7.58;72.61
30682;BME280;17439;48.092;11.842;2022-12-28T09:59:15;95944.50;;;7.61;71.17
30682;BME280;17439;48.092;11.842;2022-12-28T10:01:44;95945.00;;;7.69;72.83
30682;BME280;17439;48.092;11.842;2022-12-28T10:04:16;95949.28;;;7.75;73.10
30682;BME280;17439;48.092;11.842;2022-12-28T10:06:42;95933.84;;;7.80;73.20
30682;BME280;17439;48.092;11.842;2022-12-28T10:09:21;95927.63;;;7.85;69.90
30682;BME280;17439;48.092;11.842;2022-12-28T10:11:50;95922.72;;;7.92;73.45
30682;BME280;17439;48.092;11.842;2022-12-28T10:14:28;95919.97;;;7.97;69.68
30682;BME280;17439;48.092;11.842;2022-12-28T10:16:55;95907.50;;;8.02;71.97
30682;BME280;17439;48.092;11.842;2022-12-28T10:19:23;95912.59;;;8.08;72.44
30682;BME280;17439;48.092;11.842;2022-12-28T10:22:15;95915.53;;;8.12;64.12
30682;BME280;17439;48.092;11.842;2022-12-28T10:24:44;95907.09;;;8.18;71.71
30682;BME280;17439;48.092;11.842;2022-12-28T10:27:24;95908.94;;;8.23;66.78
30682;BME280;17439;48.092;11.842;2022-12-28T10:29:51;95900.72;;;8.33;71.36
30682;BME280;17439;48.092;11.842;2022-12-28T10:32:19;95897.44;;;8.42;71.92
30682;BME280;17439;48.092;11.842;2022-12-28T10:34:59;95891.72;;;8.48;65.77
30682;BME280;17439;48.092;11.842;2022-12-28T10:37:31;95882.16;;;8.56;65.31
30682;BME280;17439;48.092;11.842;2022-12-28T10:40:02;95882.31;;;8.65;69.65
30682;BME280;17439;48.092;11.842;2022-12-28T10:42:38;95885.78;;;8.70;64.68
30682;BME280;17439;48.092;11.842;2022-12-28T10:45:15;95871.13;;;8.77;64.53
30682;BME280;17439;48.092;11.842;2022-12-28T10:47:45;95873.75;;;8.82;67.14
30682;BME280;17439;48.092;11.842;2022-12-28T10:50:39;95864.78;;;8.86;59.65
30682;BME280;17439;48.092;11.842;2022-12-28T10:53:19;95865.00;;;8.90;61.36
30682;BME280;17439;48.092;11.842;2022-12-28T10:55:48;95860.84;;;8.98;68.25
30682;BME280;17439;48.092;11.842;2022-12-28T10:58:21;95851.34;;;9.00;62.04
30682;BME280;17439;48.092;11.842;2022-12-28T11:01:05;95851.00;;;9.07;65.97
30682;BME280;17439;48.092;11.842;2022-12-28T11:06:22;95848.34;;;9.21;68.74
30682;BME280;17439;48.092;11.842;2022-12-28T11:11:38;95838.28;;;9.26;68.65
30682;BME280;17439;48.092;11.842;2022-12-28T11:14:27;95834.53;;;9.22;63.38
30682;BME280;17439;48.092;11.842;2022-12-28T11:16:55;95825.34;;;9.23;68.41
30682;BME280;17439;48.092;11.842;2022-12-28T11:19:22;95830.25;;;9.21;67.79
30682;BME280;17439;48.092;11.842;2022-12-28T11:21:50;95828.91;;;9.19;68.29
30682;BME280;17439;48.092;11.842;2022-12-28T11:24:18;95827.63;;;9.16;68.33
30682;BME280;17439;48.092;11.842;2022-12-28T11:26:46;95832.88;;;9.07;67.99
30682;BME280;17439;48.092;11.842;2022-12-28T11:29:16;95819.84;;;9.10;68.10
30682;BME280;17439;48.092;11.842;2022-12-28T11:31:46;95820.44;;;9.06;66.85
30682;BME280;17439;48.092;11.842;2022-12-28T11:34:18;95821.53;;;9.05;67.12
30682;BME280;17439;48.092;11.842;2022-12-28T11:36:46;95829.94;;;9.04;68.01
30682;BME280;17439;48.092;11.842;2022-12-28T11:41:57;95818.88;;;9.00;66.25
30682;BME280;17439;48.092;11.842;2022-12-28T11:47:21;95810.28;;;8.98;64.75
30682;BME280;17439;48.092;11.842;2022-12-28T11:49:54;95801.88;;;9.00;68.23
30682;BME280;17439;48.092;11.842;2022-12-28T11:54:52;95806.97;;;9.01;65.28
30682;BME280;17439;48.092;11.842;2022-12-28T11:57:38;95802.38;;;9.02;64.83
30682;BME280;17439;48.092;11.842;2022-12-28T12:03:08;95788.81;;;9.07;67.67
30682;BME280;17439;48.092;11.842;2022-12-28T12:10:46;95777.59;;;9.14;67.37
30682;BME280;17439;48.092;11.842;2022-12-28T12:15:50;95783.00;;;9.14;67.22
30682;BME280;17439;48.092;11.842;2022-12-28T12:18:21;95765.16;;;9.13;65.90
30682;BME280;17439;48.092;11.842;2022-12-28T12:21:02;95759.75;;;9.13;64.87
30682;BME280;17439;48.092;11.842;2022-12-28T12:26:30;95760.34;;;9.10;61.00
30682;BME280;17439;48.092;11.842;2022-12-28T12:29:06;95752.75;;;9.12;65.06
30682;BME280;17439;48.092;11.842;2022-12-28T12:31:43;95752.47;;;9.13;65.79
30682;BME280;17439;48.092;11.842;2022-12-28T12:45:11;95720.72;;;9.19;63.85
30682;BME280;17439;48.092;11.842;2022-12-28T12:55:58;95700.09;;;9.23;62.70
30682;BME280;17439;48.092;11.842;2022-12-28T12:58:35;95691.69;;;9.24;64.76
30682;BME280;17439;48.092;11.842;2022-12-28T13:04:04;95683.78;;;9.28;65.40
30682;BME280;17439;48.092;11.842;2022-12-28T13:06:33;95676.69;;;9.32;65.93
30682;BME280;17439;48.092;11.842;2022-12-28T13:09:02;95671.28;;;9.32;63.01
30682;BME280;17439;48.092;11.842;2022-12-28T13:11:34;95672.56;;;9.35;61.39
30682;BME280;17439;48.092;11.842;2022-12-28T13:14:03;95674.88;;;9.41;65.29
30682;BME280;17439;48.092;11.842;2022-12-28T13:16:30;95676.69;;;9.46;65.75
30682;BME280;17439;48.092;11.842;2022-12-28T13:18:59;95663.41;;;9.50;65.65
30682;BME280;17439;48.092;11.842;2022-12-28T13:21:28;95667.69;;;9.51;65.30
30682;BME280;17439;48.092;11.842;2022-12-28T13:23:55;95660.34;;;9.51;65.62
30682;BME280;17439;48.092;11.842;2022-12-28T13:26:27;95662.28;;;9.51;63.10
30682;BME280;17439;48.092;11.842;2022-12-28T13:28:57;95666.91;;;9.50;64.39
30682;BME280;17439;48.092;11.842;2022-12-28T13:31:32;95661.78;;;9.49;62.41
30682;BME280;17439;48.092;11.842;2022-12-28T13:34:02;95665.56;;;9.48;64.34
30682;BME280;17439;48.092;11.842;2022-12-28T13:36:29;95664.97;;;9.51;65.90
30682;BME280;17439;48.092;11.842;2022-12-28T13:39:02;95663.06;;;9.51;62.67
30682;BME280;17439;48.092;11.842;2022-12-28T13:41:31;95669.81;;;9.54;64.62
30682;BME280;17439;48.092;11.842;2022-12-28T13:44:12;95651.94;;;9.53;58.22
30682;BME280;17439;48.092;11.842;2022-12-28T13:46:44;95657.47;;;9.61;63.68
30682;BME280;17439;48.092;11.842;2022-12-28T13:49:12;95653.59;;;9.68;64.82
30682;BME280;17439;48.092;11.842;2022-12-28T13:51:39;95650.47;;;9.74;65.30
30682;BME280;17439;48.092;11.842;2022-12-28T13:54:07;95658.50;;;9.79;64.72
30682;BME280;17439;48.092;11.842;2022-12-28T13:56:37;95662.41;;;9.87;65.30
30682;BME280;17439;48.092;11.842;2022-12-28T13:59:09;95651.47;;;9.92;64.02
30682;BME280;17439;48.092;11.842;2022-12-28T14:01:41;95639.72;;;9.97;63.54
30682;BME280;17439;48.092;11.842;2022-12-28T14:04:13;95645.03;;;10.02;63.74
30682;BME280;17439;48.092;11.842;2022-12-28T14:07:01;95638.72;;;10.07;65.40
30682;BME280;17439;48.092;11.842;2022-12-28T14:09:28;95642.44;;;10.11;65.47
30682;BME280;17439;48.092;11.842;2022-12-28T14:11:55;95641.03;;;10.13;65.44
30682;BME280;17439;48.092;11.842;2022-12-28T14:14:22;95645.63;;;10.13;65.00
30682;BME280;17439;48.092;11.842;2022-12-28T14:16:49;95637.22;;;10.14;65.01
30682;BME280;17439;48.092;11.842;2022-12-28T14:19:15;95636.09;;;10.15;64.97
30682;BME280;17439;48.092;11.842;2022-12-28T14:21:43;95633.41;;;10.15;64.73
30682;BME280;17439;48.092;11.842;2022-12-28T14:24:12;95632.91;;;10.13;64.45
30682;BME280;17439;48.092;11.842;2022-12-28T14:26:48;95628.59;;;10.12;63.73
30682;BME280;17439;48.092;11.842;2022-12-28T14:29:30;95627.56;;;10.08;62.40
30682;BME280;17439;48.092;11.842;2022-12-28T14:32:00;95628.19;;;10.05;64.67